PABR

Wiley Post-Will Rogers Memorial Airport

Barrow, Alaska, USA
PABR 162330Z 1700/1724 09005KT P6SM FEW006 FEW200 FM170400 09010KT P6SM FEW005 FEW200
Issued Valid From Valid To
Jan-16 @ 23:30 UTC
(6 hours ago)
Jan-17 @ 00:00 UTC
(5 hours ago)
Jan-18 @ 00:00 UTC
(in 19 hours)
Expired Click to View Jan-17 @ 00:00 to Jan-17 @ 04:00
PABR 162330Z 1700/1724 09005KT P6SM FEW006 FEW200
Wind Visibility Clouds
90° at 5 knots Greater than 6 miles
  • Few at 600' AGL
  • Few at 20,000' AGL
From Jan-17 @ 04:00 to Jan-18 @ 00:00
FM170400 09010KT P6SM FEW005 FEW200
Wind Visibility Clouds
90° at 10 knots Greater than 6 miles
  • Few at 500' AGL
  • Few at 20,000' AGL
PABR 162330Z 1700/1724 09005KT P6SM FEW006 FEW200 FM170400 09010KT P6SM FEW005 FEW200
Issued Jan-16 @ 23:30 UTC
(6 hours ago)
Valid From Jan-17 @ 00:00 UTC
(5 hours ago)
Valid To Jan-18 @ 00:00 UTC
(in 19 hours)
Jan-17 @ 00:00 - Jan-17 @ 04:00
Wind Visibility
90° at 5 knots Greater than 6 miles
Clouds
  • Few at 600' AGL
  • Few at 20,000' AGL
From Jan-17 @ 04:00 - Jan-18 @ 00:00
Wind Visibility
90° at 10 knots Greater than 6 miles
Clouds
  • Few at 500' AGL
  • Few at 20,000' AGL